Lake Mills, WI

11:29 AM CDT on May 27, 2015 (GMT -0500)
Johnson Creek | | Change Station
CLOSE
Current Station
Personal Weather Station
Location: Johnson Creek, WI
Elevation: 856 ft
Nearby Weather Stations

Elev 856 ft 43.06 °N, 88.77 °W | Updated 12 minutes ago

Overcast
Overcast
62.6 °F
Feels Like 62.6 °F
N
10.3
Wind Variable Wind from West

Today
High -- | Low -- °F
--% Chance of Precip.
Yesterday
High -- | Low -- °F
Precip. -- in
5:22 AM 8:24 PM
Waxing Gibbous, 68% visible
Pressure 29.97 in
Visibility 10.0 miles
Clouds Scattered Clouds 2000 ft
Mostly Cloudy 3000 ft
Mostly Cloudy 6500 ft
Dew Point 59 °F
Humidity 89%
Rainfall 0.04 in
Snow Depth Not available.
UV 5 out of 12
Pollen 7.70 out of 12
Air Quality Not available.
Flu Activity Sporadic
SPECI KMSN 271621Z 31008G15KT 10SM SCT020 BKN030 BKN065 19/14 A2997 RMK AO2 T01940139

More Conditions Fewer Conditions

Pressure 29.97 in
Visibility 10.0 miles
Clouds Scattered Clouds 2000 ft
Mostly Cloudy 3000 ft
Mostly Cloudy 6500 ft
Dew Point 59 °F
Humidity 89%
Rainfall 0.04 in
Snow Depth Not available.
UV 5 out of 12
Pollen 7.70 out of 12
Air Quality Not available.
Flu Activity Sporadic
SPECI KMSN 271621Z 31008G15KT 10SM SCT020 BKN030 BKN065 19/14 A2997 RMK AO2 T01940139

More Conditions Fewer Conditions

10-Day Weather Forecast

Almanac

Astronomy

May. 27, 2015 Rise Set
Actual Time
Civil Twilight
Nautical Twilight
Astronomical Twilight
Moon
Length of Visible Light
Length of Day
Tomorrow will be .
, % of the Moon is Illuminated

Today's Extremes

State Highs State Lows

Community

WunderPhotos

Upload Photos

1,824,711 photos uploaded!

WunderBlogs® & News

Nearby

Air Quality

  Air Quality AQ Index Pollutant
Not available.

Snow Depth

Station Depth Elevation

Earthquake Activity

City Distance Mag. Time & Date
Minimum magnitude displayed is 2.5.

Coastal Water Temperatures

Place Temperature

Stations

Nearby Weather Stations

Station Location Temp. Windchill Dew Point Humidity Wind Precip. Elev Updated Type